createdAt,value
2023-09-16T00:00:14.874Z,10.07
2023-09-16T00:02:41.674Z,16.13
2023-09-16T00:05:08.481Z,19.45
2023-09-16T00:07:35.212Z,12.20
2023-09-16T00:10:01.999Z,15.55
2023-09-16T00:12:28.826Z,16.83
2023-09-16T00:14:55.643Z,10.55
2023-09-16T00:17:23.154Z,9.52
2023-09-16T00:19:49.906Z,14.45
2023-09-16T00:22:17.164Z,13.48
2023-09-16T00:24:43.950Z,13.85
2023-09-16T00:27:10.743Z,17.80
2023-09-16T00:29:37.485Z,17.40
2023-09-16T00:32:07.503Z,14.90
2023-09-16T00:34:34.282Z,13.10
2023-09-16T00:37:01.016Z,13.88
2023-09-16T00:39:27.824Z,12.32
2023-09-16T00:41:54.948Z,11.65
2023-09-16T00:44:21.735Z,9.82
2023-09-16T00:46:50.214Z,10.10
2023-09-16T00:49:17.187Z,13.48
2023-09-16T00:51:46.234Z,11.27
2023-09-16T00:54:13.816Z,13.18
2023-09-16T00:56:41.042Z,14.40
2023-09-16T01:01:38.667Z,13.00
2023-09-16T01:04:06.620Z,12.25
2023-09-16T01:06:33.831Z,13.98
2023-09-16T01:09:00.673Z,12.82
2023-09-16T01:11:27.662Z,12.15
2023-09-16T01:13:54.619Z,10.38
2023-09-16T01:16:38.154Z,13.77
2023-09-16T01:19:42.224Z,13.98
2023-09-16T01:22:10.548Z,12.25
2023-09-16T01:24:37.359Z,12.43
2023-09-16T01:27:04.280Z,19.65
2023-09-16T01:29:31.139Z,12.93
2023-09-16T01:32:07.020Z,12.32
2023-09-16T01:34:41.226Z,13.80
2023-09-16T01:37:20.038Z,12.45
2023-09-16T01:39:53.234Z,17.85
2023-09-16T01:42:21.556Z,11.07
2023-09-16T01:44:48.725Z,12.85
2023-09-16T01:47:15.627Z,15.60
2023-09-16T01:52:09.581Z,11.93
2023-09-16T01:57:03.466Z,17.83
2023-09-16T01:59:30.227Z,13.15
2023-09-16T02:01:57.110Z,14.35
2023-09-16T02:04:23.919Z,12.88
2023-09-16T02:06:51.896Z,12.93
2023-09-16T02:09:18.711Z,13.27
2023-09-16T02:14:15.703Z,10.88
2023-09-16T02:16:45.481Z,15.07
2023-09-16T02:19:13.716Z,15.77
2023-09-16T02:21:40.571Z,18.38
2023-09-16T02:24:07.445Z,13.45
2023-09-16T02:26:34.258Z,12.98
2023-09-16T02:29:01.148Z,11.73
2023-09-16T02:31:28.117Z,11.18
2023-09-16T02:33:59.138Z,13.63
2023-09-16T02:36:27.843Z,18.95
2023-09-16T02:38:54.621Z,12.50
2023-09-16T02:41:21.962Z,13.75
2023-09-16T02:43:49.996Z,11.30
2023-09-16T02:46:17.839Z,18.98
2023-09-16T02:48:45.166Z,13.35
2023-09-16T02:51:12.618Z,15.38
2023-09-16T02:56:09.728Z,18.75
2023-09-16T02:58:37.034Z,54.47
2023-09-16T03:01:11.630Z,39.03
2023-09-16T03:03:41.792Z,21.13
2023-09-16T03:06:08.864Z,20.30
2023-09-16T03:08:35.710Z,22.23
2023-09-16T03:13:32.247Z,54.15
2023-09-16T03:16:20.353Z,44.22
2023-09-16T03:18:51.484Z,54.33
2023-09-16T03:21:20.048Z,28.33
2023-09-16T03:23:47.604Z,20.33
2023-09-16T03:26:17.325Z,14.73
2023-09-16T03:28:48.437Z,18.33
2023-09-16T03:31:19.129Z,20.30
2023-09-16T03:33:45.953Z,37.72
2023-09-16T03:36:14.305Z,30.65
2023-09-16T03:38:52.233Z,143.50
2023-09-16T03:43:53.636Z,59.70
2023-09-16T03:46:25.222Z,60.58
2023-09-16T03:48:53.365Z,110.75
2023-09-16T03:51:22.425Z,40.70
2023-09-16T03:53:51.962Z,96.18
2023-09-16T03:56:19.181Z,161.20
2023-09-16T03:58:46.295Z,159.05
2023-09-16T04:01:13.233Z,193.80
2023-09-16T04:06:07.826Z,65.18
2023-09-16T04:08:41.903Z,77.38
2023-09-16T04:11:09.654Z,94.05
2023-09-16T04:13:37.918Z,104.20
2023-09-16T04:16:04.857Z,148.23
2023-09-16T04:18:32.415Z,141.43
2023-09-16T04:23:26.399Z,126.95
2023-09-16T04:25:58.598Z,111.85
2023-09-16T04:28:26.157Z,103.72
2023-09-16T04:30:54.229Z,105.13
2023-09-16T04:33:22.765Z,135.15
2023-09-16T04:35:50.990Z,155.25
2023-09-16T04:38:24.051Z,107.93
2023-09-16T04:40:54.347Z,61.72
2023-09-16T04:43:21.602Z,107.40
2023-09-16T04:45:50.851Z,143.23
2023-09-16T04:48:28.822Z,96.85
2023-09-16T04:50:55.978Z,84.53
2023-09-16T04:53:23.383Z,105.93
2023-09-16T04:55:59.102Z,88.60
2023-09-16T04:58:27.852Z,60.63
2023-09-16T05:00:55.257Z,77.60
2023-09-16T05:03:22.137Z,123.43
2023-09-16T05:05:48.965Z,99.45
2023-09-16T05:08:15.760Z,79.22
2023-09-16T05:10:43.384Z,173.10
2023-09-16T05:13:10.613Z,154.70
2023-09-16T05:15:37.434Z,316.20
2023-09-16T05:18:06.066Z,252.85
2023-09-16T05:20:34.159Z,131.30
2023-09-16T05:23:02.745Z,202.55
2023-09-16T05:25:29.549Z,100.68
2023-09-16T05:27:56.382Z,94.93
2023-09-16T05:32:50.466Z,234.40
2023-09-16T05:35:17.452Z,167.07
2023-09-16T05:37:44.948Z,126.57
2023-09-16T05:40:12.903Z,129.73
2023-09-16T05:45:07.643Z,76.30
2023-09-16T05:47:34.543Z,168.35
2023-09-16T05:50:01.448Z,101.28
2023-09-16T05:52:29.131Z,66.75
2023-09-16T05:54:58.209Z,70.93
2023-09-16T05:57:26.057Z,44.83
2023-09-16T05:59:52.902Z,28.55
2023-09-16T06:02:20.271Z,25.63
2023-09-16T06:04:47.086Z,32.67
2023-09-16T06:07:13.906Z,23.20
2023-09-16T06:09:40.708Z,19.90
2023-09-16T06:12:07.875Z,18.90
2023-09-16T06:17:01.922Z,15.02
2023-09-16T06:19:29.476Z,12.15
2023-09-16T06:21:56.872Z,13.90
2023-09-16T06:24:25.037Z,19.40
2023-09-16T06:26:51.876Z,15.98
2023-09-16T06:29:18.670Z,12.52
2023-09-16T06:31:45.451Z,10.90
2023-09-16T06:34:12.267Z,12.07
2023-09-16T06:36:42.169Z,11.15
2023-09-16T06:39:11.144Z,10.45
2023-09-16T06:41:38.089Z,16.13
2023-09-16T06:44:13.632Z,11.63
2023-09-16T06:46:42.050Z,11.85
2023-09-16T06:49:09.024Z,10.18
2023-09-16T06:51:35.891Z,12.85
2023-09-16T06:54:03.074Z,10.43
2023-09-16T06:56:33.651Z,11.88
2023-09-16T06:59:02.436Z,10.13
2023-09-16T07:01:29.253Z,10.38
2023-09-16T07:03:56.523Z,9.35
2023-09-16T07:06:23.699Z,9.75
2023-09-16T07:08:51.709Z,9.80
2023-09-16T07:11:19.049Z,11.80
2023-09-16T07:16:14.152Z,9.00
2023-09-16T07:18:41.321Z,11.05
2023-09-16T07:23:35.108Z,10.02
2023-09-16T07:26:02.167Z,9.50
2023-09-16T07:28:29.322Z,11.52
2023-09-16T07:30:59.136Z,10.05
2023-09-16T07:33:26.406Z,13.18
2023-09-16T07:35:54.136Z,43.90
2023-09-16T07:38:20.992Z,50.53
2023-09-16T07:40:47.741Z,9.35
2023-09-16T07:43:18.157Z,13.27
2023-09-16T07:45:45.528Z,7.90
2023-09-16T07:48:12.370Z,8.80
2023-09-16T07:50:40.666Z,10.38
2023-09-16T07:53:08.306Z,10.85
2023-09-16T07:55:35.626Z,8.85
2023-09-16T07:58:02.413Z,9.48
2023-09-16T08:00:29.955Z,10.77
2023-09-16T08:02:57.206Z,9.95
2023-09-16T08:05:24.199Z,7.90
2023-09-16T08:07:51.121Z,6.85
2023-09-16T08:10:18.127Z,8.43
2023-09-16T08:12:45.060Z,7.47
2023-09-16T08:17:39.254Z,6.50
2023-09-16T08:20:07.827Z,7.93
2023-09-16T08:22:34.612Z,10.82
2023-09-16T08:27:31.721Z,10.10
2023-09-16T08:32:29.752Z,7.50
2023-09-16T08:34:57.445Z,6.65
2023-09-16T08:37:24.750Z,11.13
2023-09-16T08:39:51.636Z,10.45
2023-09-16T08:42:39.888Z,15.68
2023-09-16T08:45:08.484Z,7.07
2023-09-16T08:47:40.864Z,8.15
2023-09-16T08:50:10.227Z,5.13
2023-09-16T08:52:47.684Z,6.80
2023-09-16T08:55:15.471Z,6.82
2023-09-16T08:58:00.945Z,5.85
2023-09-16T09:00:27.873Z,93.72
2023-09-16T09:02:55.152Z,5.55
2023-09-16T09:05:24.960Z,9.27
2023-09-16T09:07:51.807Z,7.15
2023-09-16T09:10:18.679Z,6.57
2023-09-16T09:12:46.192Z,9.77
2023-09-16T09:15:15.270Z,6.13
2023-09-16T09:17:43.989Z,8.80
2023-09-16T09:20:23.186Z,9.32
2023-09-16T09:22:52.048Z,7.55
2023-09-16T09:25:26.431Z,7.18
2023-09-16T09:27:55.702Z,7.25
2023-09-16T09:30:28.419Z,6.47
2023-09-16T09:32:58.778Z,5.53
2023-09-16T09:35:27.750Z,4.25
2023-09-16T09:37:54.866Z,6.13
2023-09-16T09:40:22.847Z,3.78
2023-09-16T09:42:51.587Z,36.80
2023-09-16T09:45:20.731Z,5.28
2023-09-16T09:47:49.947Z,6.13
2023-09-16T09:50:18.740Z,4.82
2023-09-16T09:52:48.222Z,4.97
2023-09-16T09:55:19.130Z,3.20
2023-09-16T09:57:47.853Z,4.50
2023-09-16T10:52:11.193Z,5.63
2023-09-16T10:54:59.261Z,3.38
2023-09-16T10:57:37.778Z,2.75
2023-09-16T11:00:05.213Z,4.53
2023-09-16T11:02:42.945Z,48.28
2023-09-16T11:05:09.797Z,3.45
2023-09-16T11:07:37.261Z,2.05
2023-09-16T11:10:05.320Z,5.53
2023-09-16T11:12:33.052Z,11.15
2023-09-16T11:15:07.126Z,18.90
2023-09-16T11:17:33.894Z,4.20
2023-09-16T11:20:12.121Z,5.32
2023-09-16T11:22:41.127Z,2.80
2023-09-16T11:25:12.353Z,8.82
2023-09-16T11:27:39.168Z,9.10
2023-09-16T11:30:17.240Z,6.22
2023-09-16T11:33:06.810Z,5.45
2023-09-16T11:35:33.661Z,4.90
2023-09-16T11:38:01.006Z,3.00
2023-09-16T11:40:33.877Z,4.72
2023-09-16T11:43:01.258Z,8.45
2023-09-16T11:45:30.104Z,3.65
2023-09-16T11:47:57.315Z,5.28
2023-09-16T11:50:25.582Z,3.10
2023-09-16T11:52:52.736Z,3.55
2023-09-16T11:55:20.580Z,4.55
2023-09-16T11:57:49.672Z,3.53
2023-09-16T12:00:17.365Z,11.07
2023-09-16T12:02:45.190Z,2.70
2023-09-16T12:05:12.776Z,2.90
2023-09-16T12:07:39.963Z,3.70
2023-09-16T12:10:07.975Z,3.20
2023-09-16T12:12:34.813Z,4.40
2023-09-16T12:15:03.401Z,3.20
2023-09-16T12:17:30.787Z,4.05
2023-09-16T12:20:01.000Z,3.90
2023-09-16T12:22:27.826Z,60.15
2023-09-16T12:24:58.141Z,5.15
2023-09-16T12:27:26.432Z,16.00
2023-09-16T12:29:53.310Z,4.68
2023-09-16T12:32:22.819Z,3.33
2023-09-16T12:35:10.144Z,4.85
2023-09-16T12:37:37.105Z,3.20
2023-09-16T12:40:04.499Z,5.05
2023-09-16T12:42:34.005Z,4.15
2023-09-16T12:45:03.480Z,2.35
2023-09-16T12:47:33.389Z,4.57
2023-09-16T12:50:00.349Z,3.17
2023-09-16T12:52:27.877Z,5.80
2023-09-16T12:54:54.650Z,3.38
2023-09-16T12:57:22.557Z,3.53
2023-09-16T13:00:04.886Z,4.60
2023-09-16T13:02:36.773Z,3.03
2023-09-16T13:05:25.289Z,8.93
2023-09-16T13:07:53.803Z,3.10
2023-09-16T13:10:21.369Z,5.05
2023-09-16T13:12:49.619Z,3.95
2023-09-16T13:15:19.496Z,3.20
2023-09-16T13:17:49.192Z,3.75
2023-09-16T13:20:17.413Z,3.88
2023-09-16T13:22:48.058Z,4.40
2023-09-16T13:25:31.852Z,9.05
2023-09-16T13:28:07.650Z,3.05
2023-09-16T13:30:38.842Z,2.42
2023-09-16T13:33:07.796Z,2.75
2023-09-16T13:35:40.818Z,2.83
2023-09-16T13:38:10.257Z,5.43
2023-09-16T13:40:37.160Z,2.80
2023-09-16T13:43:04.768Z,3.97
2023-09-16T13:45:32.209Z,4.00
2023-09-16T13:48:09.562Z,4.65
2023-09-16T13:50:39.263Z,3.63
2023-09-16T13:53:05.996Z,5.20
2023-09-16T13:55:32.952Z,6.90
2023-09-16T13:57:59.780Z,2.80
2023-09-16T14:00:27.074Z,4.55
2023-09-16T14:02:53.853Z,4.72
2023-09-16T14:05:20.870Z,4.20
2023-09-16T14:07:47.639Z,7.47
2023-09-16T14:10:15.180Z,3.92
2023-09-16T14:12:42.066Z,3.45
2023-09-16T14:15:09.106Z,3.20
2023-09-16T14:17:35.877Z,3.58
2023-09-16T14:20:02.650Z,5.43
2023-09-16T14:22:30.567Z,6.03
2023-09-16T14:24:57.560Z,3.00
2023-09-16T14:27:25.117Z,2.92
2023-09-16T14:29:52.196Z,3.95
2023-09-16T14:32:19.612Z,4.22
2023-09-16T14:34:46.925Z,4.95
2023-09-16T14:37:13.746Z,5.05
2023-09-16T14:39:40.500Z,2.90
2023-09-16T14:42:08.142Z,5.13
2023-09-16T14:44:35.755Z,4.03
2023-09-16T14:47:02.787Z,4.57
2023-09-16T14:49:29.625Z,7.35
2023-09-16T14:51:57.648Z,3.40
2023-09-16T14:54:25.134Z,4.95
2023-09-16T14:56:53.418Z,4.15
2023-09-16T14:59:20.696Z,11.98
2023-09-16T15:01:49.526Z,4.55
2023-09-16T15:04:17.786Z,3.85
2023-09-16T15:06:44.588Z,3.00
2023-09-16T15:09:11.328Z,4.78
2023-09-16T15:11:39.215Z,3.88
2023-09-16T15:14:06.286Z,4.38
2023-09-16T15:16:33.115Z,3.05
2023-09-16T15:19:00.160Z,6.07
2023-09-16T15:21:27.803Z,3.07
2023-09-16T15:23:54.896Z,2.90
2023-09-16T15:26:21.680Z,4.78
2023-09-16T15:28:49.886Z,3.97
2023-09-16T15:31:18.862Z,5.75
2023-09-16T15:33:46.595Z,3.53
2023-09-16T15:36:13.949Z,3.83
2023-09-16T15:38:43.426Z,4.95
2023-09-16T15:41:10.566Z,3.83
2023-09-16T15:43:37.332Z,3.50
2023-09-16T15:46:06.052Z,3.35
2023-09-16T15:48:33.190Z,7.70
2023-09-16T15:51:00.154Z,3.83
2023-09-16T15:53:28.237Z,17.63
2023-09-16T15:55:56.642Z,7.07
2023-09-16T15:58:24.322Z,5.95
2023-09-16T16:00:52.656Z,5.22
2023-09-16T16:03:20.952Z,4.88
2023-09-16T16:05:49.366Z,2.70
2023-09-16T16:08:18.270Z,4.93
2023-09-16T16:10:46.773Z,5.90
2023-09-16T16:13:13.747Z,4.65
2023-09-16T16:15:41.171Z,3.08
2023-09-16T16:18:08.605Z,11.50
2023-09-16T16:20:39.306Z,3.67
2023-09-16T16:23:06.050Z,5.05
2023-09-16T16:25:32.866Z,5.60
2023-09-16T16:27:59.742Z,3.70
2023-09-16T16:30:26.714Z,7.25
2023-09-16T16:32:54.008Z,4.60
2023-09-16T16:35:21.170Z,5.03
2023-09-16T16:37:48.902Z,3.58
2023-09-16T16:40:18.706Z,6.05
2023-09-16T16:42:47.121Z,4.60
2023-09-16T16:45:14.391Z,7.07
2023-09-16T16:47:41.986Z,4.60
2023-09-16T16:50:09.744Z,7.28
2023-09-16T16:52:38.265Z,7.20
2023-09-16T16:55:09.298Z,4.90
2023-09-16T16:57:36.732Z,8.00
2023-09-16T17:00:07.423Z,5.85
2023-09-16T17:02:34.729Z,4.70
2023-09-16T17:05:01.656Z,6.45
2023-09-16T17:07:28.568Z,5.82
2023-09-16T17:09:58.595Z,12.65
2023-09-16T17:12:25.744Z,5.07
2023-09-16T17:14:54.113Z,6.10
2023-09-16T17:17:22.210Z,7.32
2023-09-16T17:19:49.368Z,7.13
2023-09-16T17:22:18.879Z,4.68
2023-09-16T17:24:46.174Z,75.40
2023-09-16T17:27:13.020Z,11.45
2023-09-16T17:29:39.869Z,6.88
2023-09-16T17:32:06.953Z,9.60
2023-09-16T17:34:34.076Z,51.70
2023-09-16T17:37:01.223Z,13.55
2023-09-16T17:39:28.336Z,7.22
2023-09-16T17:41:55.674Z,39.08
2023-09-16T17:44:22.769Z,6.65
2023-09-16T17:46:49.610Z,5.05
2023-09-16T17:49:17.062Z,7.13
2023-09-16T17:51:44.210Z,6.38
2023-09-16T17:54:11.608Z,6.25
2023-09-16T17:56:38.332Z,5.28
2023-09-16T18:01:34.125Z,8.45
2023-09-16T18:04:01.015Z,4.65
2023-09-16T18:06:28.026Z,5.32
2023-09-16T18:08:54.814Z,5.63
2023-09-16T18:11:21.909Z,5.68
2023-09-16T18:13:48.750Z,5.10
2023-09-16T18:16:16.813Z,6.38
2023-09-16T18:18:43.635Z,7.47
2023-09-16T18:23:38.321Z,8.02
2023-09-16T18:26:05.611Z,5.72
2023-09-16T18:28:32.873Z,4.50
2023-09-16T18:30:59.921Z,8.10
2023-09-16T18:33:28.658Z,7.00
2023-09-16T18:35:55.429Z,6.70
2023-09-16T18:38:22.535Z,5.53
2023-09-16T18:40:50.997Z,5.90
2023-09-16T18:43:18.600Z,5.20
2023-09-16T18:45:46.324Z,9.15
2023-09-16T18:48:13.987Z,7.43
2023-09-16T18:50:43.109Z,5.45
2023-09-16T18:53:11.077Z,6.40
2023-09-16T18:55:41.965Z,7.07
2023-09-16T18:58:08.901Z,8.90
2023-09-16T19:03:02.430Z,5.80
2023-09-16T19:05:29.417Z,6.10
2023-09-16T19:10:22.993Z,29.10
2023-09-16T19:15:16.415Z,7.32
2023-09-16T19:17:43.177Z,7.03
2023-09-16T19:22:37.030Z,6.28
2023-09-16T19:27:30.613Z,9.63
2023-09-16T19:29:57.436Z,5.90
2023-09-16T19:32:24.708Z,6.22
2023-09-16T19:34:52.707Z,5.55
2023-09-16T19:37:19.634Z,5.78
2023-09-16T19:42:13.141Z,5.28
2023-09-16T19:47:07.094Z,14.40
2023-09-16T19:52:00.645Z,6.25
2023-09-16T19:54:27.386Z,7.45
2023-09-16T19:57:03.877Z,6.65
2023-09-16T20:02:00.118Z,8.70
2023-09-16T20:04:28.107Z,8.77
2023-09-16T20:06:59.328Z,6.97
2023-09-16T20:09:26.253Z,9.25
2023-09-16T20:14:19.636Z,9.13
2023-09-16T20:16:46.480Z,6.88
2023-09-16T20:19:19.767Z,7.72
2023-09-16T20:21:52.566Z,8.43
2023-09-16T20:24:19.445Z,5.47
2023-09-16T20:26:46.467Z,6.55
2023-09-16T20:29:13.287Z,6.75
2023-09-16T20:31:40.146Z,8.50
2023-09-16T20:36:44.083Z,8.43
2023-09-16T20:39:11.041Z,9.68
2023-09-16T20:41:37.730Z,6.63
2023-09-16T20:44:04.642Z,8.35
2023-09-16T20:48:58.614Z,9.35
2023-09-16T20:51:25.467Z,7.95
2023-09-16T20:56:19.379Z,7.38
2023-09-16T20:58:46.147Z,8.55
2023-09-16T21:01:13.894Z,8.50
2023-09-16T21:03:41.739Z,8.90
2023-09-16T21:06:08.726Z,7.53
2023-09-16T21:08:35.596Z,12.00
2023-09-16T21:11:03.079Z,8.93
2023-09-16T21:13:30.293Z,9.80
2023-09-16T21:15:57.320Z,8.02
2023-09-16T21:20:50.850Z,10.15
2023-09-16T21:23:17.644Z,11.77
2023-09-16T21:25:44.734Z,13.35
2023-09-16T21:28:11.570Z,8.13
2023-09-16T21:30:38.366Z,12.30
2023-09-16T21:33:05.502Z,8.20
2023-09-16T21:35:32.530Z,11.13
2023-09-16T21:37:59.307Z,15.00
2023-09-16T21:40:26.608Z,17.30
2023-09-16T21:42:54.268Z,10.45
2023-09-16T21:45:21.770Z,14.40
2023-09-16T21:47:48.818Z,10.02
2023-09-16T21:52:42.989Z,8.80
2023-09-16T21:55:09.867Z,12.77
2023-09-16T21:57:36.638Z,9.07
2023-09-16T22:00:15.169Z,9.77
2023-09-16T22:02:42.060Z,10.15
2023-09-16T22:05:08.967Z,10.50
2023-09-16T22:07:35.756Z,10.73
2023-09-16T22:10:02.955Z,13.43
2023-09-16T22:12:29.721Z,9.38
2023-09-16T22:14:56.436Z,9.98
2023-09-16T22:17:23.223Z,10.82
2023-09-16T22:19:49.954Z,11.95
2023-09-16T22:22:16.672Z,11.50
2023-09-16T22:24:43.401Z,9.80
2023-09-16T22:27:10.134Z,9.13
2023-09-16T22:29:36.876Z,10.43
2023-09-16T22:32:04.383Z,9.70
2023-09-16T22:34:34.249Z,15.02
2023-09-16T22:37:01.327Z,9.80
2023-09-16T22:41:54.641Z,9.18
2023-09-16T22:44:21.377Z,9.15
2023-09-16T22:46:48.256Z,9.93
2023-09-16T22:49:15.050Z,17.08
2023-09-16T22:51:41.915Z,90.43
2023-09-16T22:54:08.628Z,24.38
2023-09-16T22:56:38.509Z,8.45
2023-09-16T22:59:05.279Z,12.05
2023-09-16T23:01:32.091Z,11.40
2023-09-16T23:03:58.887Z,13.70
2023-09-16T23:06:25.684Z,9.15
2023-09-16T23:08:52.407Z,8.38
2023-09-16T23:11:19.144Z,7.90
2023-09-16T23:13:45.937Z,11.70
2023-09-16T23:16:12.839Z,11.30
2023-09-16T23:18:44.015Z,15.82
2023-09-16T23:21:10.772Z,9.90
2023-09-16T23:23:37.564Z,16.67
2023-09-16T23:26:04.333Z,11.27
2023-09-16T23:28:31.102Z,10.13
2023-09-16T23:30:57.864Z,11.60
2023-09-16T23:33:24.664Z,9.35
2023-09-16T23:35:51.363Z,10.93
2023-09-16T23:38:18.217Z,18.58
2023-09-16T23:40:45.059Z,22.02
2023-09-16T23:43:12.342Z,18.42
2023-09-16T23:45:39.067Z,16.63
2023-09-16T23:48:06.989Z,15.07
2023-09-16T23:50:34.102Z,10.27
2023-09-16T23:53:00.840Z,10.13
2023-09-16T23:55:27.849Z,10.63
